Time;durP1;ratioP1;P1;durP2;ratioP2;P2;SDS_P1;SDS_P2;PMS_P1;PMS_P2;Temp;Humidity;BMP_temperature;BMP_pressure;BME280_temperature;BME280_humidity;BME280_pressure;Samples;Min_cycle;Max_cycle;Signal;HPM_P1;HPM_P2
2023/06/01 05:58:05;;;;;;;;;19.00;17.25;;;;;21.23;50.46;101566.16;5102700;27;45438;-66
2023/06/01 06:00:35;;;;;;;;;11.00;11.00;;;;;21.37;51.19;101556.84;5108457;27;45491;-66
2023/06/01 06:03:00;;;;;;;;;16.00;14.67;;;;;21.54;50.44;101557.22;5107792;27;45806;-66
2023/06/01 06:05:26;;;;;;;;;14.33;14.00;;;;;21.73;50.15;101550.22;5107363;27;45940;-66
2023/06/01 06:07:51;;;;;;;;;13.33;12.67;;;;;21.89;49.88;101549.69;5110591;27;49674;-66
2023/06/01 06:10:16;;;;;;;;;18.67;15.33;;;;;22.06;49.74;101550.84;5114786;27;46221;-66
2023/06/01 06:12:42;;;;;;;;;15.33;13.00;;;;;22.20;49.60;101555.03;5111466;27;45577;-67
2023/06/01 06:15:07;;;;;;;;;17.67;14.67;;;;;22.36;49.53;101552.63;5107566;27;45462;-67
2023/06/01 06:17:33;;;;;;;;;18.67;16.33;;;;;22.46;48.56;101549.94;5108180;27;46597;-66
2023/06/01 06:19:58;;;;;;;;;15.67;14.67;;;;;22.59;48.63;101556.91;5110433;27;45732;-66
2023/06/01 06:22:24;;;;;;;;;18.00;16.33;;;;;22.72;48.47;101562.06;5108289;27;45508;-66
2023/06/01 06:24:49;;;;;;;;;18.33;14.33;;;;;22.80;48.47;101561.34;5107540;27;45537;-67
2023/06/01 06:27:15;;;;;;;;;19.33;16.33;;;;;22.87;48.71;101557.91;5108320;27;45512;-67
2023/06/01 06:29:40;;;;;;;;;19.00;18.33;;;;;22.98;48.51;101558.75;5106417;27;45667;-67
2023/06/01 06:32:06;;;;;;;;;16.33;14.33;;;;;23.05;48.16;101561.75;5108188;27;45446;-67
2023/06/01 06:34:35;;;;;;;;;14.33;14.33;;;;;23.11;48.14;101558.44;5109302;27;45496;-67
2023/06/01 06:37:05;;;;;;;;;11.00;11.00;;;;;23.17;48.22;101547.00;5108154;27;48013;-66
2023/06/01 06:39:30;;;;;;;;;17.67;15.00;;;;;23.24;48.09;101558.97;5108754;27;45511;-66
2023/06/01 06:41:56;;;;;;;;;19.00;17.00;;;;;23.30;48.00;101557.56;5100235;27;45787;-67
2023/06/01 06:44:21;;;;;;;;;14.00;13.67;;;;;23.36;47.73;101558.81;5109242;27;45425;-66
2023/06/01 06:46:46;;;;;;;;;17.67;16.00;;;;;23.37;47.21;101560.53;5107053;27;59194;-67
2023/06/01 06:49:12;;;;;;;;;17.33;15.00;;;;;23.42;47.49;101560.97;5107696;27;45460;-69
2023/06/01 06:51:37;;;;;;;;;18.00;13.00;;;;;23.47;47.44;101568.63;5108199;27;45522;-69
2023/06/01 06:54:05;;;;;;;;;22.33;18.67;;;;;23.48;47.43;101563.06;5108744;27;45861;-68
2023/06/01 06:56:30;;;;;;;;;18.00;17.67;;;;;23.52;47.24;101569.03;5107889;27;45814;-68
2023/06/01 06:58:56;;;;;;;;;16.00;16.00;;;;;23.55;46.98;101552.50;5108711;27;45402;-68
2023/06/01 07:01:21;;;;;;;;;15.67;15.67;;;;;23.59;46.90;101566.59;5108068;27;45430;-68
2023/06/01 07:03:46;;;;;;;;;16.00;16.00;;;;;23.62;46.90;101567.13;5107705;27;45697;-68
2023/06/01 07:06:12;;;;;;;;;20.00;16.33;;;;;23.65;47.07;101574.97;5108722;27;46335;-67
2023/06/01 07:08:38;;;;;;;;;17.00;15.67;;;;;23.67;46.67;101575.66;5098082;27;50337;-67
2023/06/01 07:11:04;;;;;;;;;20.00;17.67;;;;;23.71;46.47;101581.66;5089362;27;45628;-67
2023/06/01 07:13:30;;;;;;;;;18.33;15.00;;;;;23.74;46.24;101577.81;5092281;27;45480;-67
2023/06/01 07:15:55;;;;;;;;;19.00;16.00;;;;;23.76;46.23;101584.78;5090569;27;46124;-67
2023/06/01 07:18:21;;;;;;;;;20.00;17.33;;;;;23.78;46.56;101573.75;5092666;27;45848;-68
2023/06/01 07:20:46;;;;;;;;;15.67;15.67;;;;;23.81;46.25;101595.16;5094927;27;52200;-67
2023/06/01 07:23:15;;;;;;;;;18.33;17.67;;;;;23.83;45.87;101587.75;5094761;27;45992;-68
2023/06/01 07:25:41;;;;;;;;;18.67;18.33;;;;;23.86;46.09;101590.13;5095228;27;46403;-68
2023/06/01 07:28:07;;;;;;;;;16.67;16.67;;;;;23.90;46.14;101594.25;5094508;27;45291;-67
2023/06/01 07:30:32;;;;;;;;;15.33;15.33;;;;;23.93;46.01;101587.69;5094775;27;45410;-67
2023/06/01 07:32:57;;;;;;;;;20.00;18.00;;;;;23.95;46.01;101588.41;5094521;27;45568;-67
2023/06/01 07:35:23;;;;;;;;;19.00;17.33;;;;;23.95;45.98;101586.53;5094614;27;46517;-67
2023/06/01 07:37:48;;;;;;;;;20.33;19.00;;;;;23.99;45.83;101588.94;5094235;27;45570;-67
2023/06/01 07:40:14;;;;;;;;;15.33;15.00;;;;;24.02;45.76;101591.34;5094902;27;45663;-67
2023/06/01 07:42:39;;;;;;;;;18.67;18.00;;;;;24.02;45.29;101592.19;5094263;27;45597;-67
2023/06/01 07:45:05;;;;;;;;;19.67;17.00;;;;;24.03;45.58;101590.34;5094629;27;46433;-67
2023/06/01 07:47:31;;;;;;;;;14.33;14.33;;;;;24.03;45.44;101596.63;5093316;27;45511;-68
2023/06/01 07:49:56;;;;;;;;;12.67;12.67;;;;;24.07;45.25;101589.03;5092181;27;45359;-67
2023/06/01 07:52:22;;;;;;;;;20.00;15.50;;;;;24.09;45.70;101597.91;5094666;27;45440;-67
2023/06/01 07:54:49;;;;;;;;;19.33;16.00;;;;;24.07;45.26;101598.03;5110299;27;47067;-67
2023/06/01 07:57:15;;;;;;;;;11.67;9.00;;;;;24.08;45.26;101593.47;5093251;27;45339;-67
2023/06/01 07:59:40;;;;;;;;;13.00;13.00;;;;;24.15;45.80;101602.72;5094159;27;45406;-67
2023/06/01 08:02:06;;;;;;;;;18.33;15.33;;;;;24.15;45.57;101594.56;5093784;27;45553;-66
2023/06/01 08:04:34;;;;;;;;;15.00;13.00;;;;;24.04;45.95;101567.66;5092409;27;47793;-66
2023/06/01 08:07:02;;;;;;;;;12.00;9.33;;;;;24.06;45.64;101576.47;5093498;27;45439;-66
2023/06/01 08:09:28;;;;;;;;;13.00;12.00;;;;;24.11;45.90;101581.50;5094168;27;45576;-66
2023/06/01 08:11:53;;;;;;;;;12.67;12.00;;;;;24.08;45.70;101566.34;5109900;27;45623;-66
2023/06/01 08:14:19;;;;;;;;;12.33;11.00;;;;;24.08;45.92;101571.78;5093432;27;46208;-66
2023/06/01 08:16:45;;;;;;;;;11.33;11.00;;;;;24.11;45.81;101570.63;5092541;27;45401;-66
2023/06/01 08:19:11;;;;;;;;;11.00;11.00;;;;;24.20;45.36;101578.69;5093581;27;45343;-66
2023/06/01 08:21:37;;;;;;;;;11.67;10.33;;;;;24.18;45.63;101575.31;5093283;27;45428;-67
2023/06/01 08:24:03;;;;;;;;;12.00;12.00;;;;;24.12;45.90;101565.06;5092070;27;45422;-67
2023/06/01 08:26:28;;;;;;;;;9.33;9.33;;;;;24.16;46.34;101563.72;5093487;27;45550;-69
2023/06/01 08:28:54;;;;;;;;;11.33;11.33;;;;;24.25;46.04;101575.53;5094151;27;46024;-69
2023/06/01 08:31:21;;;;;;;;;8.67;8.67;;;;;24.31;45.99;101579.47;5092896;27;45442;-68
2023/06/01 08:33:47;;;;;;;;;7.67;7.67;;;;;24.28;45.61;101579.81;5093811;27;45525;-69
2023/06/01 08:36:12;;;;;;;;;10.00;9.33;;;;;24.27;46.38;101575.41;5108781;27;45457;-69
2023/06/01 08:38:39;;;;;;;;;6.67;6.67;;;;;24.32;46.40;101579.34;5093406;27;45482;-68
2023/06/01 08:41:20;;;;;;;;;10.33;8.33;;;;;24.34;46.07;101579.19;5085205;27;45943;-67
2023/06/01 08:43:55;;;;;;;;;9.00;9.00;;;;;24.31;46.36;101572.22;5091518;27;46235;-67
2023/06/01 08:46:22;;;;;;;;;8.00;7.00;;;;;24.39;46.39;101570.59;5081662;27;45404;-67
2023/06/01 08:48:53;;;;;;;;;8.67;8.67;;;;;24.38;46.71;101569.72;5092757;27;45465;-66
2023/06/01 08:51:18;;;;;;;;;7.67;6.67;;;;;24.39;46.92;101568.72;5093373;27;45364;-66
2023/06/01 08:53:47;;;;;;;;;7.33;7.33;;;;;24.44;46.63;101571.81;5093203;27;45531;-67
2023/06/01 08:56:13;;;;;;;;;7.00;6.33;;;;;24.46;47.29;101567.09;5092275;27;45475;-67
2023/06/01 08:58:40;;;;;;;;;7.33;4.33;;;;;24.48;46.96;101569.66;5092565;27;45454;-67
2023/06/01 09:01:06;;;;;;;;;6.67;6.67;;;;;24.51;46.89;101560.34;5093668;27;45591;-67
2023/06/01 09:03:31;;;;;;;;;6.33;6.33;;;;;24.60;46.74;101575.69;5092315;27;46541;-67
2023/06/01 09:05:57;;;;;;;;;6.67;6.67;;;;;24.51;46.68;101555.78;5093148;27;45507;-66
2023/06/01 09:08:24;;;;;;;;;8.00;8.00;;;;;24.56;47.17;101567.00;5092518;27;45575;-67
2023/06/01 09:10:49;;;;;;;;;6.00;6.00;;;;;24.61;46.84;101567.41;5093308;27;45414;-66
2023/06/01 09:13:30;;;;;;;;;8.00;6.33;;;;;24.63;47.32;101563.66;5092050;27;45518;-67
2023/06/01 09:15:56;;;;;;;;;7.67;7.67;;;;;24.61;47.15;101545.69;5093052;27;45394;-67
2023/06/01 09:18:21;;;;;;;;;7.67;6.00;;;;;24.69;46.88;101561.19;5092788;27;45480;-66
2023/06/01 09:20:46;;;;;;;;;7.00;7.00;;;;;24.68;47.23;101550.50;5093091;27;45391;-66
2023/06/01 09:23:23;;;;;;;;;8.00;8.00;;;;;24.71;46.52;101556.47;5092803;27;46451;-66
2023/06/01 09:26:09;;;;;;;;;7.00;7.00;;;;;24.68;46.89;101545.91;5092238;27;45707;-70
2023/06/01 09:28:59;;;;;;;;;8.67;8.67;;;;;24.88;46.42;101574.78;5093058;27;45527;-68
2023/06/01 09:31:44;;;;;;;;;7.33;7.33;;;;;24.77;46.21;101554.13;5091901;27;45530;-68
2023/06/01 09:34:20;;;;;;;;;7.33;7.33;;;;;24.65;45.77;101545.38;5092511;27;46255;-68
2023/06/01 09:36:48;;;;;;;;;9.00;9.00;;;;;24.71;46.09;101550.19;5091545;27;45491;-68
2023/06/01 09:39:16;;;;;;;;;10.00;7.00;;;;;24.65;45.66;101543.53;5092554;27;45368;-68
2023/06/01 09:41:50;;;;;;;;;8.00;8.00;;;;;24.65;45.70;101537.25;5091786;27;45495;-68
2023/06/01 09:44:30;;;;;;;;;7.33;7.33;;;;;24.65;46.01;101542.66;5098208;27;45548;-68
2023/06/01 09:46:59;;;;;;;;;6.33;6.33;;;;;24.58;46.14;101540.59;5092048;27;45414;-68
2023/06/01 09:49:29;;;;;;;;;9.33;8.33;;;;;24.57;46.69;101535.31;5092616;27;45412;-68
2023/06/01 09:52:03;;;;;;;;;10.00;7.33;;;;;24.69;46.35;101558.47;5092820;27;45755;-68
2023/06/01 09:54:31;;;;;;;;;13.00;10.00;;;;;24.55;46.29;101532.75;5092245;27;45675;-69
2023/06/01 09:56:57;;;;;;;;;9.67;7.67;;;;;24.52;46.72;101541.19;5091293;27;45582;-68
2023/06/01 09:59:24;;;;;;;;;7.00;7.00;;;;;24.54;46.41;101531.06;5091058;27;45815;-68
2023/06/01 10:01:54;;;;;;;;;7.00;7.00;;;;;24.54;46.50;101532.91;5091712;27;45658;-68
2023/06/01 10:04:28;;;;;;;;;7.33;7.00;;;;;24.48;46.02;101526.22;5092314;27;45408;-68
2023/06/01 10:06:56;;;;;;;;;7.33;7.33;;;;;24.48;46.62;101532.53;5092102;27;45417;-68
2023/06/01 10:09:24;;;;;;;;;10.00;9.33;;;;;24.51;46.47;101525.06;5090481;27;45502;-68
2023/06/01 10:11:54;;;;;;;;;5.00;5.00;;;;;24.50;46.57;101529.66;5090801;27;45453;-68
2023/06/01 10:14:22;;;;;;;;;7.00;7.00;;;;;24.52;46.49;101529.50;5085231;27;46060;-68
2023/06/01 10:16:50;;;;;;;;;8.33;8.00;;;;;24.48;46.20;101523.50;5084681;27;45733;-68
2023/06/01 10:19:16;;;;;;;;;7.33;6.00;;;;;24.50;46.24;101520.66;5088855;27;45664;-67
2023/06/01 10:21:45;;;;;;;;;8.33;8.33;;;;;24.46;46.89;101518.28;5092536;27;45516;-67
2023/06/01 10:24:11;;;;;;;;;9.33;8.00;;;;;24.49;46.90;101525.25;5091351;27;45516;-68
2023/06/01 10:26:43;;;;;;;;;6.67;6.67;;;;;24.47;46.25;101510.97;5090008;27;45397;-70
2023/06/01 10:29:10;;;;;;;;;6.67;6.67;;;;;24.43;46.45;101507.72;5091955;27;45535;-68
2023/06/01 10:31:42;;;;;;;;;7.33;6.33;;;;;24.59;46.57;101530.56;5089312;27;45516;-68
2023/06/01 10:34:09;;;;;;;;;10.00;9.00;;;;;24.42;46.52;101505.16;5078544;27;46185;-67
2023/06/01 10:36:53;;;;;;;;;7.67;7.67;;;;;24.59;46.51;101526.00;5090583;27;45494;-68
2023/06/01 10:39:28;;;;;;;;;8.33;7.33;;;;;24.40;46.29;101494.44;5091417;27;45328;-67
2023/06/01 10:41:56;;;;;;;;;8.67;7.67;;;;;24.47;46.28;101502.81;5089302;27;45482;-67
2023/06/01 10:44:40;;;;;;;;;6.67;6.67;;;;;24.60;46.70;101522.28;5093155;27;45690;-67
2023/06/01 10:47:11;;;;;;;;;7.00;7.00;;;;;24.62;46.63;101527.56;5094845;27;45401;-67
2023/06/01 10:49:49;;;;;;;;;8.33;7.00;;;;;24.62;46.88;101522.13;5094019;27;45463;-67
2023/06/01 10:52:31;;;;;;;;;8.33;8.00;;;;;24.65;46.71;101524.53;5095625;27;45732;-69
2023/06/01 10:55:17;;;;;;;;;6.00;6.00;;;;;24.60;46.59;101507.84;5094145;27;46219;-69
2023/06/01 10:57:46;;;;;;;;;8.00;8.00;;;;;24.53;46.46;101496.78;5089812;27;45542;-69
2023/06/01 11:00:24;;;;;;;;;8.00;6.33;;;;;24.56;47.02;101495.63;5094748;27;45565;-68
2023/06/01 11:02:54;;;;;;;;;6.33;6.33;;;;;24.69;46.53;101508.78;5093939;27;45804;-68
2023/06/01 11:05:38;;;;;;;;;8.00;7.00;;;;;24.71;46.42;101501.31;5090924;27;45528;-68
2023/06/01 11:08:28;;;;;;;;;7.00;7.00;;;;;24.65;46.33;101501.94;5090052;27;45475;-68
2023/06/01 11:11:02;;;;;;;;;4.67;4.67;;;;;24.75;46.67;101513.56;5081064;27;45426;-68
2023/06/01 11:13:35;;;;;;;;;9.67;7.00;;;;;24.64;46.42;101483.97;5094876;27;45370;-67
2023/06/01 11:16:03;;;;;;;;;7.00;7.00;;;;;24.77;46.52;101514.25;5087362;27;46692;-68
2023/06/01 11:18:49;;;;;;;;;6.00;6.00;;;;;24.79;46.53;101506.81;5094722;27;45964;-69
2023/06/01 11:21:21;;;;;;;;;7.00;7.00;;;;;24.68;46.48;101491.63;5090548;27;45623;-70
2023/06/01 13:22:38;;;;;;;;;8.67;6.33;;;;;21.97;52.65;101402.06;5096648;27;45573;-67
2023/06/01 13:25:04;;;;;;;;;9.67;9.00;;;;;22.23;52.48;101415.00;5081879;27;45469;-68
2023/06/01 13:27:30;;;;;;;;;8.00;7.67;;;;;22.35;52.52;101394.06;5098834;27;45488;-68
2023/06/01 13:29:55;;;;;;;;;7.33;7.00;;;;;22.55;52.32;101399.44;5089506;27;45710;-67
2023/06/01 13:32:21;;;;;;;;;6.33;6.33;;;;;22.69;51.70;101391.88;5087549;27;46295;-67
2023/06/01 13:34:46;;;;;;;;;10.00;8.67;;;;;22.86;51.20;101383.00;5088598;27;45472;-67
2023/06/01 13:37:12;;;;;;;;;8.00;7.00;;;;;23.07;51.01;101395.44;5088817;27;45433;-67
2023/06/01 13:39:38;;;;;;;;;7.67;7.67;;;;;23.32;50.27;101411.13;5088418;27;45461;-68
2023/06/01 13:42:05;;;;;;;;;8.00;7.00;;;;;23.36;50.26;101401.72;5088446;27;45378;-69
2023/06/01 13:44:30;;;;;;;;;6.33;6.33;;;;;23.51;50.13;101405.59;5088560;27;45466;-69
2023/06/01 13:46:56;;;;;;;;;6.00;6.00;;;;;23.57;50.07;101393.31;5087718;27;45613;-71
2023/06/01 13:49:22;;;;;;;;;8.00;8.00;;;;;23.70;49.79;101392.94;5088675;27;45479;-70
2023/06/01 13:51:47;;;;;;;;;9.00;8.00;;;;;23.79;49.62;101407.44;5088181;27;46047;-70
2023/06/01 13:54:13;;;;;;;;;7.33;7.33;;;;;23.82;49.09;101391.72;5086412;27;45506;-69
2023/06/01 13:56:38;;;;;;;;;6.00;6.00;;;;;23.91;49.38;101394.50;5087254;27;45525;-68
2023/06/01 13:59:04;;;;;;;;;7.67;6.33;;;;;23.97;49.18;101403.84;5088409;27;45504;-68
2023/06/01 14:01:29;;;;;;;;;8.33;5.00;;;;;24.03;48.72;101392.41;5094755;27;45566;-67
2023/06/01 14:03:55;;;;;;;;;7.00;7.00;;;;;24.07;48.56;101391.06;5094701;27;45683;-68
2023/06/01 14:06:20;;;;;;;;;9.00;7.00;;;;;24.10;48.45;101398.09;5092974;27;45544;-68
2023/06/01 14:08:45;;;;;;;;;8.67;7.00;;;;;24.19;48.43;101391.69;5086391;27;45310;-68
2023/06/01 14:11:11;;;;;;;;;7.33;7.33;;;;;24.23;48.45;101389.56;5103522;27;46429;-68
2023/06/01 14:13:36;;;;;;;;;7.67;7.67;;;;;24.36;48.42;101411.66;5080277;27;45492;-68
2023/06/01 14:16:02;;;;;;;;;8.00;7.33;;;;;24.24;48.33;101381.25;5086226;27;45390;-67
2023/06/01 14:18:27;;;;;;;;;5.67;5.67;;;;;24.26;48.20;101371.09;5076443;27;45511;-69
2023/06/01 14:20:52;;;;;;;;;6.33;6.33;;;;;24.30;48.13;101377.91;5087809;27;46223;-69
2023/06/01 14:23:18;;;;;;;;;8.00;6.67;;;;;24.34;47.72;101376.59;5089610;27;45249;-69
2023/06/01 14:25:43;;;;;;;;;5.00;5.00;;;;;24.33;47.90;101377.56;5101744;27;45644;-70
2023/06/01 14:28:08;;;;;;;;;8.67;8.67;;;;;24.29;47.77;101362.66;5087270;27;45538;-69
2023/06/01 14:30:34;;;;;;;;;6.67;6.67;;;;;24.37;47.73;101377.25;5087422;27;45756;-69
2023/06/01 14:32:59;;;;;;;;;8.67;8.00;;;;;24.29;47.23;101364.50;5079702;27;45567;-69
2023/06/01 14:35:26;;;;;;;;;8.33;8.33;;;;;24.27;47.79;101364.66;5074466;27;45372;-69
2023/06/01 14:37:52;;;;;;;;;8.00;8.00;;;;;24.24;47.70;101347.84;5067765;27;45581;-69
2023/06/01 14:40:18;;;;;;;;;6.00;6.00;;;;;24.29;47.59;101365.38;5066133;27;46277;-70
2023/06/01 14:42:43;;;;;;;;;8.67;7.00;;;;;24.28;47.48;101352.78;5074007;27;45855;-69
2023/06/01 14:45:11;;;;;;;;;7.00;6.00;;;;;24.23;47.54;101355.13;5079681;27;45440;-70
2023/06/01 14:47:36;;;;;;;;;7.67;7.67;;;;;24.28;47.85;101360.09;5071269;27;45537;-67
2023/06/01 14:50:02;;;;;;;;;7.00;7.00;;;;;24.37;48.38;101366.41;5067365;27;46456;-69
2023/06/01 14:52:28;;;;;;;;;7.67;7.00;;;;;24.33;47.93;101350.44;5079089;27;45414;-68
2023/06/01 14:54:53;;;;;;;;;6.33;6.33;;;;;24.38;48.85;101347.28;5079334;27;45394;-69
2023/06/01 14:57:20;;;;;;;;;6.67;6.00;;;;;24.46;48.42;101352.75;5084679;27;45424;-68
2023/06/01 14:59:45;;;;;;;;;8.33;7.00;;;;;24.50;48.48;101345.13;5073383;28;45510;-68
2023/06/01 15:02:11;;;;;;;;;6.67;6.67;;;;;24.53;49.14;101346.69;5072692;27;45395;-68
2023/06/01 15:04:36;;;;;;;;;5.67;5.67;;;;;24.53;48.47;101330.41;5073998;27;45448;-69
2023/06/01 15:07:01;;;;;;;;;7.33;7.00;;;;;24.56;48.63;101338.22;5069641;27;45831;-68
2023/06/01 15:09:27;;;;;;;;;5.67;5.00;;;;;24.60;49.04;101340.44;5065592;27;46299;-68
2023/06/01 15:11:52;;;;;;;;;4.00;4.00;;;;;24.62;49.05;101334.84;5079675;27;45528;-68
2023/06/01 15:14:18;;;;;;;;;7.33;7.33;;;;;24.61;48.91;101319.59;5073636;27;45431;-68
2023/06/01 15:16:44;;;;;;;;;5.00;5.00;;;;;24.74;49.42;101349.81;5073770;27;45445;-67
2023/06/01 15:19:09;;;;;;;;;7.00;6.67;;;;;24.68;49.69;101334.19;5078952;27;46352;-67
2023/06/01 15:21:35;;;;;;;;;6.00;6.00;;;;;24.70;49.73;101328.63;5072876;27;45478;-67
2023/06/01 15:24:01;;;;;;;;;7.00;5.00;;;;;24.71;49.73;101322.16;5073255;28;45676;-67
2023/06/01 15:26:26;;;;;;;;;5.67;5.00;;;;;24.72;49.15;101318.44;5072324;27;45319;-67
2023/06/01 15:28:52;;;;;;;;;4.67;4.67;;;;;24.86;49.29;101336.84;5085935;27;46267;-68
2023/06/01 15:31:17;;;;;;;;;6.00;5.33;;;;;24.78;48.83;101327.78;5078711;27;45315;-68
2023/06/01 15:33:42;;;;;;;;;7.33;6.67;;;;;24.76;48.64;101324.41;5074703;27;45474;-69
2023/06/01 15:36:08;;;;;;;;;6.33;6.33;;;;;24.76;47.81;101308.13;5071354;27;45403;-68
2023/06/01 15:38:35;;;;;;;;;7.33;7.33;;;;;24.75;47.61;101320.84;5081364;27;45590;-67
2023/06/01 15:41:01;;;;;;;;;7.33;6.33;;;;;24.72;47.67;101318.44;5077339;27;46499;-67
2023/06/01 15:43:26;;;;;;;;;9.00;7.00;;;;;24.74;47.73;101322.69;5071929;27;45470;-67
2023/06/01 15:45:52;;;;;;;;;6.67;5.00;;;;;24.68;47.13;101312.47;5057949;27;45473;-67
2023/06/01 15:48:17;;;;;;;;;5.67;5.67;;;;;24.74;47.52;101335.44;5068776;27;46030;-67
2023/06/01 15:50:42;;;;;;;;;8.33;6.67;;;;;24.61;47.61;101315.00;5076784;27;46505;-68
2023/06/01 15:53:08;;;;;;;;;9.33;7.00;;;;;24.63;47.58;101317.56;5072741;28;45481;-67
2023/06/01 15:55:33;;;;;;;;;10.00;8.00;;;;;24.65;47.67;101309.25;5073225;27;45584;-68
2023/06/01 15:57:58;;;;;;;;;5.67;5.67;;;;;24.59;47.60;101322.47;5070688;27;46321;-67
2023/06/01 16:00:24;;;;;;;;;10.33;8.33;;;;;24.71;47.43;101325.75;5070792;27;45520;-71
2023/06/01 16:02:50;;;;;;;;;10.67;5.67;;;;;24.73;47.52;101329.13;5073735;27;45569;-71
2023/06/01 16:05:16;;;;;;;;;9.67;9.33;;;;;24.77;47.87;101331.53;5076986;27;45410;-68
2023/06/01 16:07:41;;;;;;;;;7.33;6.67;;;;;24.77;47.63;101326.94;5061917;28;46061;-68
2023/06/01 16:10:08;;;;;;;;;6.00;6.00;;;;;24.79;47.07;101324.06;5081361;27;45396;-69
2023/06/01 16:12:34;;;;;;;;;8.67;7.33;;;;;24.81;47.50;101325.59;5072962;28;45530;-68
2023/06/01 16:14:59;;;;;;;;;9.00;7.67;;;;;24.80;47.85;101328.50;5075642;27;45592;-68
2023/06/01 16:17:24;;;;;;;;;7.00;5.67;;;;;24.81;47.82;101332.91;5078027;27;47085;-68
2023/06/01 16:19:50;;;;;;;;;8.33;6.33;;;;;24.82;47.41;101327.31;5073251;27;45459;-70
2023/06/01 16:22:15;;;;;;;;;7.67;7.67;;;;;24.81;47.47;101319.34;5072649;27;45533;-68
2023/06/01 16:24:41;;;;;;;;;6.67;6.67;;;;;24.79;47.41;101319.50;5072505;28;45694;-68
2023/06/01 16:27:07;;;;;;;;;7.00;6.00;;;;;24.76;47.31;101308.94;5072019;27;57247;-68
2023/06/01 16:29:32;;;;;;;;;7.33;6.67;;;;;24.74;47.08;101314.53;5072336;27;45651;-68
2023/06/01 16:31:58;;;;;;;;;6.67;6.67;;;;;24.73;47.29;101315.56;5078946;27;45387;-68
2023/06/01 16:34:23;;;;;;;;;6.33;6.33;;;;;24.72;47.35;101316.59;5074974;27;45478;-68
2023/06/01 16:36:49;;;;;;;;;7.67;6.00;;;;;24.72;47.17;101321.16;5081684;27;45403;-69
2023/06/01 16:39:15;;;;;;;;;8.00;7.00;;;;;24.69;46.85;101313.34;5071792;27;45407;-69
2023/06/01 16:41:41;;;;;;;;;8.67;7.33;;;;;24.68;47.45;101314.38;5074641;27;47375;-71
2023/06/01 16:44:06;;;;;;;;;10.33;8.00;;;;;24.65;47.18;101304.69;5073908;27;45731;-69
2023/06/01 16:46:31;;;;;;;;;9.00;7.00;;;;;24.66;47.53;101302.81;5086098;27;46578;-69
2023/06/01 16:48:57;;;;;;;;;6.00;6.00;;;;;24.66;47.48;101300.94;5071864;28;45531;-70
2023/06/01 16:51:23;;;;;;;;;5.67;5.67;;;;;24.68;47.80;101307.06;5072608;27;45387;-69
2023/06/01 16:53:50;;;;;;;;;6.00;6.00;;;;;24.70;47.73;101310.47;5071121;27;45320;-69
2023/06/01 16:56:16;;;;;;;;;7.00;7.00;;;;;24.72;47.29;101307.56;5075614;27;46676;-67
2023/06/01 16:58:41;;;;;;;;;7.67;7.00;;;;;24.74;47.34;101311.81;5080312;27;45513;-68
2023/06/01 17:01:06;;;;;;;;;7.33;6.00;;;;;24.77;47.27;101309.81;5069354;27;45606;-68
2023/06/01 17:03:32;;;;;;;;;6.33;6.33;;;;;24.77;47.45;101307.94;5070403;27;45748;-68
2023/06/01 17:05:57;;;;;;;;;7.67;5.67;;;;;24.77;47.74;101305.22;5072284;28;45573;-69
2023/06/01 17:08:22;;;;;;;;;6.33;6.00;;;;;24.79;47.09;101302.34;5080353;27;45813;-67
2023/06/01 17:10:48;;;;;;;;;7.67;6.33;;;;;24.80;47.50;101309.50;5087366;27;45415;-68
2023/06/01 17:13:13;;;;;;;;;7.00;7.00;;;;;24.80;47.58;101298.63;5079902;27;52952;-69
2023/06/01 17:15:39;;;;;;;;;7.33;7.00;;;;;24.82;46.94;101308.31;5061666;28;46077;-69
2023/06/01 17:18:05;;;;;;;;;8.00;6.00;;;;;24.80;47.70;101318.47;5071776;27;45687;-73
2023/06/01 17:20:30;;;;;;;;;6.67;6.67;;;;;24.82;46.56;101312.88;5067465;27;45464;-68
2023/06/01 17:22:55;;;;;;;;;8.67;7.00;;;;;24.81;47.15;101309.31;5070521;27;51036;-67
2023/06/01 17:25:21;;;;;;;;;5.00;5.00;;;;;24.81;46.90;101314.75;5077509;27;46370;-67
2023/06/01 17:27:48;;;;;;;;;11.33;8.33;;;;;24.81;47.07;101314.75;5076182;27;45666;-70
2023/06/01 17:30:13;;;;;;;;;7.00;6.00;;;;;24.83;47.32;101315.47;5080005;27;45568;-67
2023/06/01 17:32:40;;;;;;;;;8.33;7.33;;;;;24.88;47.50;101312.25;5086429;27;45338;-68
2023/06/01 17:35:05;;;;;;;;;9.33;8.67;;;;;24.90;46.86;101317.53;5070743;27;46257;-68
2023/06/01 17:37:31;;;;;;;;;11.00;11.00;;;;;24.91;47.00;101317.38;5071036;28;45529;-68
2023/06/01 17:39:56;;;;;;;;;11.00;8.67;;;;;24.96;47.22;101322.28;5070707;27;47505;-68
2023/06/01 17:42:21;;;;;;;;;8.00;8.00;;;;;24.98;46.80;101325.72;5080205;27;46037;-68
2023/06/01 17:44:46;;;;;;;;;9.33;8.00;;;;;25.00;47.31;101327.25;5071130;28;53452;-68
2023/06/01 17:47:12;;;;;;;;;8.67;8.00;;;;;25.02;47.37;101329.81;5068975;27;45475;-68
2023/06/01 17:49:37;;;;;;;;;8.00;8.00;;;;;25.03;46.78;101336.94;5070196;28;45378;-68
2023/06/01 17:52:03;;;;;;;;;7.00;7.00;;;;;25.07;46.97;101332.00;5071645;27;45439;-68
2023/06/01 17:54:29;;;;;;;;;8.00;7.33;;;;;25.09;46.86;101338.16;5070641;27;46123;-68
2023/06/01 17:56:55;;;;;;;;;8.00;8.00;;;;;25.09;46.85;101336.25;5071263;28;45583;-68
2023/06/01 17:59:20;;;;;;;;;9.33;7.00;;;;;25.11;47.21;101334.25;5071514;28;45663;-68
2023/06/01 18:01:46;;;;;;;;;6.67;6.67;;;;;25.12;47.08;101341.38;5069239;27;45363;-68
2023/06/01 18:04:11;;;;;;;;;5.33;5.33;;;;;25.14;46.91;101335.78;5079689;27;45756;-68
2023/06/01 18:06:36;;;;;;;;;9.33;8.00;;;;;25.17;46.78;101350.91;5069827;28;46032;-68
2023/06/01 18:09:02;;;;;;;;;6.00;6.00;;;;;25.13;47.05;101340.34;5073465;27;45898;-68
2023/06/01 18:11:27;;;;;;;;;9.33;8.00;;;;;25.18;46.61;101339.84;5085994;27;45431;-66
2023/06/01 18:13:53;;;;;;;;;9.00;8.33;;;;;25.19;46.46;101351.56;5075583;27;46294;-66
2023/06/01 18:16:21;;;;;;;;;7.33;6.67;;;;;25.18;46.74;101348.00;5074804;27;45517;-67
2023/06/01 18:18:47;;;;;;;;;6.67;6.67;;;;;25.18;46.97;101344.44;5074814;27;50428;-68
2023/06/01 18:21:12;;;;;;;;;6.67;6.67;;;;;25.20;46.85;101347.84;5076283;27;45626;-68
2023/06/01 18:23:38;;;;;;;;;9.00;7.33;;;;;25.20;46.63;101345.97;5073927;27;53566;-67
2023/06/01 18:26:03;;;;;;;;;8.00;8.00;;;;;25.18;46.39;101348.00;5060775;27;46449;-68
2023/06/01 18:28:29;;;;;;;;;6.00;6.00;;;;;25.20;46.48;101348.69;5071719;28;45438;-68
2023/06/01 18:30:54;;;;;;;;;7.00;5.00;;;;;25.21;46.99;101349.53;5088625;27;46410;-68
2023/06/01 18:33:21;;;;;;;;;7.00;7.00;;;;;25.22;46.65;101352.09;5071397;27;62332;-68
2023/06/01 18:35:46;;;;;;;;;4.67;4.67;;;;;25.22;46.50;101356.69;5075464;27;45677;-67
2023/06/01 18:38:12;;;;;;;;;6.00;6.00;;;;;25.20;47.00;101359.56;5074105;28;45522;-68
2023/06/01 18:40:37;;;;;;;;;7.33;5.67;;;;;25.19;46.53;101349.72;5072816;27;45711;-66
2023/06/01 18:43:03;;;;;;;;;7.00;7.00;;;;;25.20;46.99;101356.84;5074290;27;45628;-66
2023/06/01 18:45:28;;;;;;;;;7.33;5.67;;;;;25.19;46.76;101363.28;5071949;27;45924;-66
2023/06/01 18:47:53;;;;;;;;;6.67;5.33;;;;;25.18;46.98;101358.03;5076717;27;45494;-66
2023/06/01 18:50:20;;;;;;;;;8.33;6.33;;;;;25.16;46.59;101352.75;5073777;27;45613;-66
2023/06/01 18:52:46;;;;;;;;;5.00;5.00;;;;;25.11;46.76;101357.84;5071825;27;46557;-66
2023/06/01 18:55:13;;;;;;;;;8.00;7.00;;;;;25.16;46.85;101360.03;5071988;27;45837;-68
2023/06/01 18:57:42;;;;;;;;;7.33;6.33;;;;;25.16;46.55;101362.75;5087967;27;45381;-69
2023/06/01 19:00:09;;;;;;;;;6.00;6.00;;;;;25.16;46.57;101365.47;5075868;27;45465;-66
2023/06/01 19:02:35;;;;;;;;;7.00;7.00;;;;;25.15;46.95;101364.63;5076533;27;45743;-65
2023/06/01 19:05:01;;;;;;;;;7.67;7.67;;;;;25.12;46.70;101363.09;5072142;27;45588;-68
2023/06/01 19:07:29;;;;;;;;;7.00;7.00;;;;;25.16;46.89;101369.06;5068854;27;45484;-69
2023/06/01 19:09:55;;;;;;;;;5.67;5.67;;;;;25.18;46.94;101366.19;5073924;27;45898;-69
2023/06/01 19:12:20;;;;;;;;;8.67;6.00;;;;;25.19;46.83;101368.72;5073616;27;45565;-69
2023/06/01 19:14:46;;;;;;;;;8.00;8.00;;;;;25.21;46.64;101373.97;5070616;27;45514;-69
2023/06/01 19:17:14;;;;;;;;;8.00;6.33;;;;;25.23;46.92;101377.41;5067920;28;45400;-69